Time,TemperatureF,DewpointF,PressureIn,WindDirection,WindDirectionDegrees,WindSpeedMPH,WindSpeedGustMPH,Humidity,HourlyPrecipIn,Conditions,Clouds,dailyrainin,SoftwareType,DateUTC
2013-02-19 11:00:00,62.7,43.8,29.82,NE,34,0.0,6.0,50,0.00,,,0.00,Wunderground v.1.15,2013-02-19 19:00:00,
2013-02-19 11:10:00,62.7,43.8,29.81,NE,34,0.0,6.0,50,0.00,,,0.00,Wunderground v.1.15,2013-02-19 19:10:00,
2013-02-19 11:20:00,62.7,43.8,29.81,NE,34,0.0,6.0,50,0.00,,,0.00,Wunderground v.1.15,2013-02-19 19:20:00,
2013-02-19 11:30:00,62.7,44.3,29.81,NE,34,0.0,6.0,51,0.00,,,0.00,Wunderground v.1.15,2013-02-19 19:30:00,
2013-02-19 11:40:00,62.8,43.9,29.80,NE,34,0.0,6.0,50,0.00,,,0.00,Wunderground v.1.15,2013-02-19 19:40:00,
2013-02-19 11:50:00,62.8,43.9,29.80,NE,34,0.0,6.0,50,0.00,,,0.00,Wunderground v.1.15,2013-02-19 19:50:00,
2013-02-19 12:00:00,62.9,44.0,29.80,NE,34,0.0,6.0,50,0.00,,,0.00,Wunderground v.1.15,2013-02-19 20:00:00,
2013-02-19 12:10:00,62.8,43.9,29.80,NE,34,0.0,6.0,50,0.00,,,0.00,Wunderground v.1.15,2013-02-19 20:10:00,
2013-02-19 12:20:00,62.7,43.8,29.79,NE,34,0.0,6.0,50,0.00,,,0.00,Wunderground v.1.15,2013-02-19 20:20:00,
2013-02-19 12:30:00,62.6,43.7,29.78,NE,34,0.0,6.0,50,0.00,,,0.00,Wunderground v.1.15,2013-02-19 20:30:00,
2013-02-19 12:40:00,62.6,44.2,29.79,NE,34,0.0,6.0,51,0.00,,,0.00,Wunderground v.1.15,2013-02-19 20:40:00,
2013-02-19 12:50:00,62.6,44.2,29.79,NE,34,0.0,6.0,51,0.00,,,0.00,Wunderground v.1.15,2013-02-19 20:50:00,
2013-02-19 13:00:00,62.7,44.3,29.79,NE,34,0.0,6.0,51,0.00,,,0.00,Wunderground v.1.15,2013-02-19 21:00:00,
2013-02-19 13:10:00,62.8,44.4,29.79,NE,34,0.0,6.0,51,0.00,,,0.00,Wunderground v.1.15,2013-02-19 21:10:00,
2013-02-19 13:20:00,62.8,44.4,29.79,NE,34,0.0,6.0,51,0.00,,,0.00,Wunderground v.1.15,2013-02-19 21:20:00,
2013-02-19 13:30:00,62.9,44.5,29.78,NE,34,0.0,6.0,51,0.00,,,0.00,Wunderground v.1.15,2013-02-19 21:30:00,
2013-02-19 13:40:00,62.9,44.5,29.79,NE,34,0.0,6.0,51,0.00,,,0.00,Wunderground v.1.15,2013-02-19 21:40:00,
2013-02-19 13:50:00,65.2,44.5,29.78,SE,133,3.0,3.0,47,0.07,,,0.04,Wunderground v.1.15,2013-02-19 21:50:00,
2013-02-19 14:00:00,65.2,44.5,29.77,SE,134,0.0,6.0,47,0.00,,,0.04,Wunderground v.1.15,2013-02-19 22:00:00,
2013-02-19 14:10:00,65.8,45.0,29.77,SE,138,0.0,6.0,47,0.00,,,0.04,Wunderground v.1.15,2013-02-19 22:10:00,
2013-02-19 14:20:00,63.6,46.6,29.77,ESE,108,0.0,6.0,54,0.00,,,0.04,Wunderground v.1.15,2013-02-19 22:20:00,
2013-02-19 14:30:00,63.7,46.7,29.76,ESE,109,0.0,6.0,54,0.00,,,0.04,Wunderground v.1.15,2013-02-19 22:30:00,
2013-02-19 14:40:00,63.9,46.9,29.76,ESE,109,0.0,6.0,54,0.00,,,0.04,Wunderground v.1.15,2013-02-19 22:40:00,
2013-02-19 14:50:00,64.0,47.0,29.76,ESE,108,0.0,6.0,54,0.00,,,0.04,Wunderground v.1.15,2013-02-19 22:50:00,
2013-02-19 15:00:00,64.1,47.1,29.75,ESE,108,0.0,6.0,54,0.00,,,0.04,Wunderground v.1.15,2013-02-19 23:00:00,
2013-02-19 15:10:00,64.1,46.6,29.75,ESE,109,0.0,6.0,53,0.00,,,0.04,Wunderground v.1.15,2013-02-19 23:10:00,
2013-02-19 15:20:00,64.1,46.6,29.75,ESE,109,0.0,6.0,53,0.00,,,0.04,Wunderground v.1.15,2013-02-19 23:20:00,
2013-02-19 15:30:00,64.2,46.7,29.75,ESE,108,0.0,6.0,53,0.00,,,0.04,Wunderground v.1.15,2013-02-19 23:30:00,
2013-02-19 15:40:00,64.1,46.1,29.75,ESE,109,0.0,6.0,52,0.00,,,0.04,Wunderground v.1.15,2013-02-19 23:40:00,
2013-02-19 15:50:00,64.1,46.1,29.75,ESE,110,0.0,6.0,52,0.00,,,0.04,Wunderground v.1.15,2013-02-19 23:50:00,